sensor_id;sensor_type;location;lat;lon;timestamp;P1;durP1;ratioP1;P2;durP2;ratioP2
44272;SDS011;29964;17.182;-96.766;2023-03-23T00:00:53;2.10;;;1.20;;
44272;SDS011;29964;17.182;-96.766;2023-03-23T00:03:20;1.00;;;0.55;;
44272;SDS011;29964;17.182;-96.766;2023-03-23T00:05:50;3.33;;;1.70;;
44272;SDS011;29964;17.182;-96.766;2023-03-23T00:08:19;1.75;;;1.10;;
44272;SDS011;29964;17.182;-96.766;2023-03-23T00:10:50;2.15;;;1.13;;
44272;SDS011;29964;17.182;-96.766;2023-03-23T00:13:20;3.55;;;1.33;;
44272;SDS011;29964;17.182;-96.766;2023-03-23T00:15:46;1.30;;;0.82;;
44272;SDS011;29964;17.182;-96.766;2023-03-23T00:18:19;1.23;;;0.70;;
44272;SDS011;29964;17.182;-96.766;2023-03-23T00:20:50;1.52;;;0.80;;
44272;SDS011;29964;17.182;-96.766;2023-03-23T00:23:17;1.83;;;0.75;;
44272;SDS011;29964;17.182;-96.766;2023-03-23T00:25:47;1.25;;;0.85;;
44272;SDS011;29964;17.182;-96.766;2023-03-23T00:28:15;0.98;;;0.70;;
44272;SDS011;29964;17.182;-96.766;2023-03-23T00:30:42;2.05;;;1.10;;
44272;SDS011;29964;17.182;-96.766;2023-03-23T00:33:10;5.50;;;0.85;;
44272;SDS011;29964;17.182;-96.766;2023-03-23T00:35:38;2.20;;;0.70;;
44272;SDS011;29964;17.182;-96.766;2023-03-23T00:38:05;2.88;;;1.08;;
44272;SDS011;29964;17.182;-96.766;2023-03-23T00:40:33;1.90;;;0.88;;
44272;SDS011;29964;17.182;-96.766;2023-03-23T00:43:01;1.10;;;0.90;;
44272;SDS011;29964;17.182;-96.766;2023-03-23T00:45:29;0.65;;;0.60;;
44272;SDS011;29964;17.182;-96.766;2023-03-23T00:47:55;8.23;;;2.10;;
44272;SDS011;29964;17.182;-96.766;2023-03-23T00:50:27;3.58;;;1.80;;
44272;SDS011;29964;17.182;-96.766;2023-03-23T00:52:53;2.40;;;1.45;;
44272;SDS011;29964;17.182;-96.766;2023-03-23T00:55:22;1.90;;;1.08;;
44272;SDS011;29964;17.182;-96.766;2023-03-23T00:57:49;4.53;;;1.00;;
44272;SDS011;29964;17.182;-96.766;2023-03-23T01:00:17;3.00;;;1.67;;
44272;SDS011;29964;17.182;-96.766;2023-03-23T01:02:44;2.10;;;1.42;;
44272;SDS011;29964;17.182;-96.766;2023-03-23T01:05:11;2.55;;;1.20;;
44272;SDS011;29964;17.182;-96.766;2023-03-23T01:07:39;2.50;;;1.23;;
44272;SDS011;29964;17.182;-96.766;2023-03-23T01:10:07;6.22;;;1.25;;
44272;SDS011;29964;17.182;-96.766;2023-03-23T01:12:33;2.22;;;0.82;;
44272;SDS011;29964;17.182;-96.766;2023-03-23T01:15:01;9.77;;;1.47;;
44272;SDS011;29964;17.182;-96.766;2023-03-23T01:17:28;4.10;;;1.65;;
44272;SDS011;29964;17.182;-96.766;2023-03-23T01:19:54;2.08;;;1.55;;
44272;SDS011;29964;17.182;-96.766;2023-03-23T01:22:21;1.98;;;1.42;;
44272;SDS011;29964;17.182;-96.766;2023-03-23T01:24:48;2.33;;;1.50;;
44272;SDS011;29964;17.182;-96.766;2023-03-23T01:27:15;2.03;;;1.30;;
44272;SDS011;29964;17.182;-96.766;2023-03-23T01:29:41;2.03;;;1.33;;
44272;SDS011;29964;17.182;-96.766;2023-03-23T01:32:08;8.53;;;2.40;;
44272;SDS011;29964;17.182;-96.766;2023-03-23T01:34:35;3.33;;;1.67;;
44272;SDS011;29964;17.182;-96.766;2023-03-23T01:37:05;4.67;;;1.50;;
44272;SDS011;29964;17.182;-96.766;2023-03-23T01:39:32;2.30;;;1.47;;
44272;SDS011;29964;17.182;-96.766;2023-03-23T01:41:58;2.33;;;1.60;;
44272;SDS011;29964;17.182;-96.766;2023-03-23T01:46:58;2.00;;;1.20;;
44272;SDS011;29964;17.182;-96.766;2023-03-23T01:49:29;2.40;;;1.33;;
44272;SDS011;29964;17.182;-96.766;2023-03-23T01:51:59;7.43;;;2.27;;
44272;SDS011;29964;17.182;-96.766;2023-03-23T01:54:26;1.20;;;0.97;;
44272;SDS011;29964;17.182;-96.766;2023-03-23T01:57:08;1.83;;;1.27;;
44272;SDS011;29964;17.182;-96.766;2023-03-23T01:59:36;3.17;;;1.20;;
44272;SDS011;29964;17.182;-96.766;2023-03-23T02:02:03;1.17;;;0.97;;
44272;SDS011;29964;17.182;-96.766;2023-03-23T02:04:30;2.03;;;1.43;;
44272;SDS011;29964;17.182;-96.766;2023-03-23T02:06:57;2.07;;;1.50;;
44272;SDS011;29964;17.182;-96.766;2023-03-23T02:09:26;2.47;;;1.33;;
44272;SDS011;29964;17.182;-96.766;2023-03-23T02:11:53;3.33;;;1.50;;
44272;SDS011;29964;17.182;-96.766;2023-03-23T02:14:21;2.10;;;1.10;;
44272;SDS011;29964;17.182;-96.766;2023-03-23T02:16:51;2.93;;;1.43;;
44272;SDS011;29964;17.182;-96.766;2023-03-23T02:24:40;1.57;;;1.07;;
44272;SDS011;29964;17.182;-96.766;2023-03-23T02:35:06;2.57;;;1.40;;
44272;SDS011;29964;17.182;-96.766;2023-03-23T02:37:44;1.87;;;1.10;;
44272;SDS011;29964;17.182;-96.766;2023-03-23T02:40:14;2.33;;;1.33;;
44272;SDS011;29964;17.182;-96.766;2023-03-23T02:42:43;1.80;;;0.97;;
44272;SDS011;29964;17.182;-96.766;2023-03-23T02:45:12;2.33;;;1.53;;
44272;SDS011;29964;17.182;-96.766;2023-03-23T02:47:40;13.10;;;1.77;;
44272;SDS011;29964;17.182;-96.766;2023-03-23T02:50:08;4.40;;;2.43;;
44272;SDS011;29964;17.182;-96.766;2023-03-23T02:52:36;2.50;;;1.53;;
44272;SDS011;29964;17.182;-96.766;2023-03-23T02:55:05;5.33;;;2.37;;
44272;SDS011;29964;17.182;-96.766;2023-03-23T02:57:33;2.17;;;1.53;;
44272;SDS011;29964;17.182;-96.766;2023-03-23T03:00:00;3.47;;;1.90;;
44272;SDS011;29964;17.182;-96.766;2023-03-23T03:02:31;1.83;;;1.40;;
44272;SDS011;29964;17.182;-96.766;2023-03-23T03:05:01;14.73;;;2.43;;
44272;SDS011;29964;17.182;-96.766;2023-03-23T03:07:39;2.93;;;1.70;;
44272;SDS011;29964;17.182;-96.766;2023-03-23T03:10:17;2.70;;;1.43;;
44272;SDS011;29964;17.182;-96.766;2023-03-23T03:16:01;3.17;;;2.00;;
44272;SDS011;29964;17.182;-96.766;2023-03-23T03:18:03;3.30;;;1.90;;
44272;SDS011;29964;17.182;-96.766;2023-03-23T03:20:31;6.73;;;2.07;;
44272;SDS011;29964;17.182;-96.766;2023-03-23T03:22:59;5.47;;;2.27;;
44272;SDS011;29964;17.182;-96.766;2023-03-23T03:25:26;3.30;;;1.83;;
44272;SDS011;29964;17.182;-96.766;2023-03-23T03:27:53;3.40;;;1.90;;
44272;SDS011;29964;17.182;-96.766;2023-03-23T03:30:24;1.63;;;1.07;;
44272;SDS011;29964;17.182;-96.766;2023-03-23T03:32:53;9.77;;;1.97;;
44272;SDS011;29964;17.182;-96.766;2023-03-23T03:35:21;3.80;;;1.80;;
44272;SDS011;29964;17.182;-96.766;2023-03-23T03:37:48;19.80;;;2.33;;
44272;SDS011;29964;17.182;-96.766;2023-03-23T03:40:17;7.00;;;2.20;;
44272;SDS011;29964;17.182;-96.766;2023-03-23T03:42:44;10.50;;;3.40;;
44272;SDS011;29964;17.182;-96.766;2023-03-23T03:45:13;17.73;;;4.67;;
44272;SDS011;29964;17.182;-96.766;2023-03-23T03:47:40;4.43;;;2.57;;
44272;SDS011;29964;17.182;-96.766;2023-03-23T03:50:07;5.03;;;3.57;;
44272;SDS011;29964;17.182;-96.766;2023-03-23T03:52:34;24.80;;;5.93;;
44272;SDS011;29964;17.182;-96.766;2023-03-23T03:55:01;11.70;;;5.37;;
44272;SDS011;29964;17.182;-96.766;2023-03-23T03:57:28;10.97;;;6.30;;
44272;SDS011;29964;17.182;-96.766;2023-03-23T03:59:55;6.87;;;4.37;;
44272;SDS011;29964;17.182;-96.766;2023-03-23T04:02:24;4.73;;;2.00;;
44272;SDS011;29964;17.182;-96.766;2023-03-23T04:04:51;3.67;;;2.10;;
44272;SDS011;29964;17.182;-96.766;2023-03-23T04:07:18;16.97;;;3.00;;
44272;SDS011;29964;17.182;-96.766;2023-03-23T04:09:46;8.87;;;4.07;;
44272;SDS011;29964;17.182;-96.766;2023-03-23T04:12:13;5.17;;;2.27;;
44272;SDS011;29964;17.182;-96.766;2023-03-23T04:14:40;3.93;;;2.17;;
44272;SDS011;29964;17.182;-96.766;2023-03-23T04:17:07;7.60;;;2.40;;
44272;SDS011;29964;17.182;-96.766;2023-03-23T04:19:37;4.13;;;1.80;;
44272;SDS011;29964;17.182;-96.766;2023-03-23T04:22:04;2.83;;;1.57;;
44272;SDS011;29964;17.182;-96.766;2023-03-23T04:24:31;1.40;;;1.10;;
44272;SDS011;29964;17.182;-96.766;2023-03-23T04:26:59;4.53;;;2.07;;
44272;SDS011;29964;17.182;-96.766;2023-03-23T04:29:27;2.40;;;1.77;;
44272;SDS011;29964;17.182;-96.766;2023-03-23T04:31:53;3.00;;;2.03;;
44272;SDS011;29964;17.182;-96.766;2023-03-23T04:34:21;4.47;;;2.13;;
44272;SDS011;29964;17.182;-96.766;2023-03-23T04:36:48;2.43;;;1.73;;
44272;SDS011;29964;17.182;-96.766;2023-03-23T04:39:16;3.07;;;2.00;;
44272;SDS011;29964;17.182;-96.766;2023-03-23T04:41:43;3.53;;;2.10;;
44272;SDS011;29964;17.182;-96.766;2023-03-23T04:44:11;2.23;;;1.43;;
44272;SDS011;29964;17.182;-96.766;2023-03-23T04:46:43;2.80;;;1.70;;
44272;SDS011;29964;17.182;-96.766;2023-03-23T04:49:10;9.87;;;3.93;;
44272;SDS011;29964;17.182;-96.766;2023-03-23T04:51:39;2.87;;;1.70;;
44272;SDS011;29964;17.182;-96.766;2023-03-23T04:54:06;2.63;;;1.87;;
44272;SDS011;29964;17.182;-96.766;2023-03-23T04:56:32;7.57;;;3.40;;
44272;SDS011;29964;17.182;-96.766;2023-03-23T04:58:59;5.87;;;2.23;;
44272;SDS011;29964;17.182;-96.766;2023-03-23T05:01:26;4.83;;;2.60;;
44272;SDS011;29964;17.182;-96.766;2023-03-23T05:03:53;3.50;;;2.20;;
44272;SDS011;29964;17.182;-96.766;2023-03-23T05:06:21;3.43;;;1.90;;
44272;SDS011;29964;17.182;-96.766;2023-03-23T05:08:48;3.07;;;2.03;;
44272;SDS011;29964;17.182;-96.766;2023-03-23T05:11:14;5.00;;;2.13;;
44272;SDS011;29964;17.182;-96.766;2023-03-23T05:13:41;5.33;;;2.13;;
44272;SDS011;29964;17.182;-96.766;2023-03-23T05:16:09;1.87;;;0.90;;
44272;SDS011;29964;17.182;-96.766;2023-03-23T05:18:36;6.53;;;2.33;;
44272;SDS011;29964;17.182;-96.766;2023-03-23T05:21:03;7.70;;;1.97;;
44272;SDS011;29964;17.182;-96.766;2023-03-23T05:23:30;2.40;;;1.87;;
44272;SDS011;29964;17.182;-96.766;2023-03-23T05:25:59;5.57;;;1.50;;
44272;SDS011;29964;17.182;-96.766;2023-03-23T05:28:28;3.93;;;2.50;;
44272;SDS011;29964;17.182;-96.766;2023-03-23T05:30:56;2.80;;;2.13;;
44272;SDS011;29964;17.182;-96.766;2023-03-23T05:33:23;4.17;;;2.43;;
44272;SDS011;29964;17.182;-96.766;2023-03-23T05:35:50;11.53;;;1.40;;
44272;SDS011;29964;17.182;-96.766;2023-03-23T05:38:17;1.97;;;1.53;;
44272;SDS011;29964;17.182;-96.766;2023-03-23T05:40:44;2.30;;;1.60;;
44272;SDS011;29964;17.182;-96.766;2023-03-23T05:43:11;18.73;;;2.20;;
44272;SDS011;29964;17.182;-96.766;2023-03-23T05:45:38;1.70;;;1.30;;
44272;SDS011;29964;17.182;-96.766;2023-03-23T05:48:05;4.20;;;2.37;;
44272;SDS011;29964;17.182;-96.766;2023-03-23T05:50:31;3.37;;;1.87;;
44272;SDS011;29964;17.182;-96.766;2023-03-23T05:52:58;2.57;;;1.40;;
44272;SDS011;29964;17.182;-96.766;2023-03-23T05:55:25;2.83;;;1.60;;
44272;SDS011;29964;17.182;-96.766;2023-03-23T05:57:51;8.90;;;2.53;;
44272;SDS011;29964;17.182;-96.766;2023-03-23T06:00:19;2.63;;;1.73;;
44272;SDS011;29964;17.182;-96.766;2023-03-23T06:02:48;2.30;;;1.63;;
44272;SDS011;29964;17.182;-96.766;2023-03-23T06:05:16;4.37;;;2.77;;
44272;SDS011;29964;17.182;-96.766;2023-03-23T06:07:43;4.83;;;2.50;;
44272;SDS011;29964;17.182;-96.766;2023-03-23T06:10:09;4.43;;;2.10;;
44272;SDS011;29964;17.182;-96.766;2023-03-23T06:12:37;3.30;;;2.10;;
44272;SDS011;29964;17.182;-96.766;2023-03-23T06:15:05;2.87;;;1.70;;
44272;SDS011;29964;17.182;-96.766;2023-03-23T06:17:32;5.23;;;2.13;;
44272;SDS011;29964;17.182;-96.766;2023-03-23T06:19:59;2.20;;;1.53;;
44272;SDS011;29964;17.182;-96.766;2023-03-23T06:22:26;3.80;;;1.83;;
44272;SDS011;29964;17.182;-96.766;2023-03-23T06:24:53;3.27;;;1.77;;
44272;SDS011;29964;17.182;-96.766;2023-03-23T06:27:23;2.27;;;1.53;;
44272;SDS011;29964;17.182;-96.766;2023-03-23T06:29:49;13.10;;;2.83;;
44272;SDS011;29964;17.182;-96.766;2023-03-23T06:32:16;2.80;;;2.07;;
44272;SDS011;29964;17.182;-96.766;2023-03-23T06:34:43;7.50;;;3.17;;
44272;SDS011;29964;17.182;-96.766;2023-03-23T06:37:11;11.47;;;2.80;;
44272;SDS011;29964;17.182;-96.766;2023-03-23T06:39:38;3.30;;;1.90;;
44272;SDS011;29964;17.182;-96.766;2023-03-23T06:42:08;5.27;;;2.90;;
44272;SDS011;29964;17.182;-96.766;2023-03-23T06:44:36;29.90;;;2.43;;
44272;SDS011;29964;17.182;-96.766;2023-03-23T06:47:03;2.13;;;1.77;;
44272;SDS011;29964;17.182;-96.766;2023-03-23T06:49:30;2.67;;;1.87;;
44272;SDS011;29964;17.182;-96.766;2023-03-23T06:51:57;2.57;;;1.87;;
44272;SDS011;29964;17.182;-96.766;2023-03-23T06:54:26;3.07;;;2.30;;
44272;SDS011;29964;17.182;-96.766;2023-03-23T06:56:53;5.23;;;2.77;;
44272;SDS011;29964;17.182;-96.766;2023-03-23T06:59:20;4.50;;;2.83;;
44272;SDS011;29964;17.182;-96.766;2023-03-23T07:01:47;3.50;;;1.87;;
44272;SDS011;29964;17.182;-96.766;2023-03-23T07:04:14;2.77;;;2.07;;
44272;SDS011;29964;17.182;-96.766;2023-03-23T07:06:41;2.77;;;2.03;;
44272;SDS011;29964;17.182;-96.766;2023-03-23T07:09:08;2.70;;;2.00;;
44272;SDS011;29964;17.182;-96.766;2023-03-23T07:11:35;10.70;;;1.87;;
44272;SDS011;29964;17.182;-96.766;2023-03-23T07:14:02;2.47;;;1.87;;
44272;SDS011;29964;17.182;-96.766;2023-03-23T07:16:29;2.90;;;2.00;;
44272;SDS011;29964;17.182;-96.766;2023-03-23T07:18:57;4.47;;;2.43;;
44272;SDS011;29964;17.182;-96.766;2023-03-23T07:21:24;6.70;;;2.23;;
44272;SDS011;29964;17.182;-96.766;2023-03-23T07:23:51;2.03;;;1.17;;
44272;SDS011;29964;17.182;-96.766;2023-03-23T07:26:18;2.07;;;1.50;;
44272;SDS011;29964;17.182;-96.766;2023-03-23T07:28:44;1.77;;;1.40;;
44272;SDS011;29964;17.182;-96.766;2023-03-23T07:31:12;2.70;;;1.90;;
44272;SDS011;29964;17.182;-96.766;2023-03-23T07:33:38;6.20;;;2.23;;
44272;SDS011;29964;17.182;-96.766;2023-03-23T07:36:05;19.70;;;2.67;;
44272;SDS011;29964;17.182;-96.766;2023-03-23T07:38:32;3.23;;;2.17;;
44272;SDS011;29964;17.182;-96.766;2023-03-23T07:40:59;2.70;;;2.10;;
44272;SDS011;29964;17.182;-96.766;2023-03-23T07:43:26;3.50;;;2.53;;
44272;SDS011;29964;17.182;-96.766;2023-03-23T07:45:52;2.53;;;1.77;;
44272;SDS011;29964;17.182;-96.766;2023-03-23T07:48:19;2.10;;;1.57;;
44272;SDS011;29964;17.182;-96.766;2023-03-23T07:50:46;2.93;;;1.70;;
44272;SDS011;29964;17.182;-96.766;2023-03-23T07:53:12;1.83;;;1.40;;
44272;SDS011;29964;17.182;-96.766;2023-03-23T07:55:39;3.37;;;1.80;;
44272;SDS011;29964;17.182;-96.766;2023-03-23T07:58:06;3.13;;;1.77;;
44272;SDS011;29964;17.182;-96.766;2023-03-23T08:00:33;3.07;;;2.37;;
44272;SDS011;29964;17.182;-96.766;2023-03-23T08:03:00;2.87;;;1.97;;
44272;SDS011;29964;17.182;-96.766;2023-03-23T08:05:28;9.03;;;2.40;;
44272;SDS011;29964;17.182;-96.766;2023-03-23T08:07:54;3.43;;;2.20;;
44272;SDS011;29964;17.182;-96.766;2023-03-23T08:10:21;2.97;;;1.07;;
44272;SDS011;29964;17.182;-96.766;2023-03-23T08:12:53;3.27;;;2.03;;
44272;SDS011;29964;17.182;-96.766;2023-03-23T08:15:20;2.93;;;1.93;;
44272;SDS011;29964;17.182;-96.766;2023-03-23T08:17:48;1.60;;;1.00;;
44272;SDS011;29964;17.182;-96.766;2023-03-23T08:20:16;1.50;;;1.13;;
44272;SDS011;29964;17.182;-96.766;2023-03-23T08:22:44;3.03;;;1.73;;
44272;SDS011;29964;17.182;-96.766;2023-03-23T08:25:12;2.47;;;1.83;;
44272;SDS011;29964;17.182;-96.766;2023-03-23T08:27:43;9.40;;;2.63;;
44272;SDS011;29964;17.182;-96.766;2023-03-23T08:30:11;7.57;;;2.27;;
44272;SDS011;29964;17.182;-96.766;2023-03-23T08:32:38;2.70;;;2.07;;
44272;SDS011;29964;17.182;-96.766;2023-03-23T08:35:09;4.03;;;2.83;;
44272;SDS011;29964;17.182;-96.766;2023-03-23T08:37:36;3.93;;;2.27;;
44272;SDS011;29964;17.182;-96.766;2023-03-23T08:40:04;6.33;;;2.37;;
44272;SDS011;29964;17.182;-96.766;2023-03-23T08:42:38;9.27;;;2.53;;
44272;SDS011;29964;17.182;-96.766;2023-03-23T08:45:05;5.27;;;2.77;;
44272;SDS011;29964;17.182;-96.766;2023-03-23T08:47:33;2.97;;;1.97;;
44272;SDS011;29964;17.182;-96.766;2023-03-23T08:50:00;2.53;;;1.80;;
44272;SDS011;29964;17.182;-96.766;2023-03-23T08:52:27;3.07;;;2.20;;
44272;SDS011;29964;17.182;-96.766;2023-03-23T08:54:54;1.17;;;1.00;;
44272;SDS011;29964;17.182;-96.766;2023-03-23T08:57:22;5.73;;;2.60;;
44272;SDS011;29964;17.182;-96.766;2023-03-23T08:59:49;4.40;;;2.70;;
44272;SDS011;29964;17.182;-96.766;2023-03-23T09:02:19;6.13;;;2.77;;
44272;SDS011;29964;17.182;-96.766;2023-03-23T09:04:45;3.43;;;2.20;;
44272;SDS011;29964;17.182;-96.766;2023-03-23T09:07:12;4.43;;;2.07;;
44272;SDS011;29964;17.182;-96.766;2023-03-23T09:09:40;2.70;;;1.73;;
44272;SDS011;29964;17.182;-96.766;2023-03-23T09:12:08;3.17;;;2.27;;
44272;SDS011;29964;17.182;-96.766;2023-03-23T09:14:36;3.37;;;2.23;;
44272;SDS011;29964;17.182;-96.766;2023-03-23T09:17:03;4.27;;;2.43;;
44272;SDS011;29964;17.182;-96.766;2023-03-23T09:19:30;2.37;;;1.60;;
44272;SDS011;29964;17.182;-96.766;2023-03-23T09:21:58;4.53;;;2.37;;
44272;SDS011;29964;17.182;-96.766;2023-03-23T09:24:25;3.40;;;2.27;;
44272;SDS011;29964;17.182;-96.766;2023-03-23T09:26:52;2.40;;;1.70;;
44272;SDS011;29964;17.182;-96.766;2023-03-23T09:29:19;5.40;;;2.47;;
44272;SDS011;29964;17.182;-96.766;2023-03-23T09:31:46;2.70;;;2.00;;
44272;SDS011;29964;17.182;-96.766;2023-03-23T09:34:13;4.03;;;2.63;;
44272;SDS011;29964;17.182;-96.766;2023-03-23T09:36:43;3.83;;;2.57;;
44272;SDS011;29964;17.182;-96.766;2023-03-23T09:39:10;3.50;;;2.13;;
44272;SDS011;29964;17.182;-96.766;2023-03-23T09:47:11;1.90;;;1.55;;
44272;SDS011;29964;17.182;-96.766;2023-03-23T09:49:42;4.17;;;2.90;;
44272;SDS011;29964;17.182;-96.766;2023-03-23T09:54:37;32.33;;;2.50;;
44272;SDS011;29964;17.182;-96.766;2023-03-23T09:57:09;3.27;;;2.27;;
44272;SDS011;29964;17.182;-96.766;2023-03-23T09:59:41;4.43;;;2.77;;
44272;SDS011;29964;17.182;-96.766;2023-03-23T10:04:38;3.00;;;2.37;;
44272;SDS011;29964;17.182;-96.766;2023-03-23T10:07:11;2.97;;;2.27;;
44272;SDS011;29964;17.182;-96.766;2023-03-23T10:09:39;6.43;;;2.80;;
44272;SDS011;29964;17.182;-96.766;2023-03-23T10:12:09;4.47;;;2.00;;
44272;SDS011;29964;17.182;-96.766;2023-03-23T10:17:21;3.20;;;2.47;;
44272;SDS011;29964;17.182;-96.766;2023-03-23T10:27:45;6.23;;;2.20;;
44272;SDS011;29964;17.182;-96.766;2023-03-23T10:30:15;2.60;;;1.87;;
44272;SDS011;29964;17.182;-96.766;2023-03-23T10:32:54;2.50;;;1.77;;
44272;SDS011;29964;17.182;-96.766;2023-03-23T10:35:26;3.73;;;1.93;;
44272;SDS011;29964;17.182;-96.766;2023-03-23T10:37:56;3.07;;;1.80;;
44272;SDS011;29964;17.182;-96.766;2023-03-23T10:40:27;4.20;;;2.70;;
44272;SDS011;29964;17.182;-96.766;2023-03-23T10:42:55;2.43;;;1.67;;
44272;SDS011;29964;17.182;-96.766;2023-03-23T10:45:28;3.73;;;1.80;;
44272;SDS011;29964;17.182;-96.766;2023-03-23T10:48:10;3.17;;;2.30;;
44272;SDS011;29964;17.182;-96.766;2023-03-23T10:50:38;4.03;;;2.27;;
44272;SDS011;29964;17.182;-96.766;2023-03-23T10:53:14;3.30;;;2.30;;
44272;SDS011;29964;17.182;-96.766;2023-03-23T10:55:42;3.57;;;2.17;;
44272;SDS011;29964;17.182;-96.766;2023-03-23T10:58:11;1.80;;;1.50;;
44272;SDS011;29964;17.182;-96.766;2023-03-23T11:00:42;3.20;;;2.43;;
44272;SDS011;29964;17.182;-96.766;2023-03-23T11:06:19;4.53;;;2.43;;
44272;SDS011;29964;17.182;-96.766;2023-03-23T11:08:46;4.40;;;2.17;;
44272;SDS011;29964;17.182;-96.766;2023-03-23T11:11:19;2.53;;;1.87;;
44272;SDS011;29964;17.182;-96.766;2023-03-23T11:13:47;2.23;;;1.83;;
44272;SDS011;29964;17.182;-96.766;2023-03-23T11:19:13;1.20;;;1.10;;
44272;SDS011;29964;17.182;-96.766;2023-03-23T11:21:40;3.00;;;1.77;;
44272;SDS011;29964;17.182;-96.766;2023-03-23T11:24:12;1.83;;;1.20;;
44272;SDS011;29964;17.182;-96.766;2023-03-23T11:26:38;1.93;;;1.50;;
44272;SDS011;29964;17.182;-96.766;2023-03-23T11:34:17;1.30;;;1.03;;
44272;SDS011;29964;17.182;-96.766;2023-03-23T11:36:53;1.90;;;1.57;;
44272;SDS011;29964;17.182;-96.766;2023-03-23T11:39:21;2.40;;;1.73;;
44272;SDS011;29964;17.182;-96.766;2023-03-23T11:41:48;2.17;;;1.47;;
44272;SDS011;29964;17.182;-96.766;2023-03-23T11:44:15;4.13;;;2.40;;
44272;SDS011;29964;17.182;-96.766;2023-03-23T11:46:53;3.87;;;2.27;;
44272;SDS011;29964;17.182;-96.766;2023-03-23T11:49:25;7.13;;;2.80;;
44272;SDS011;29964;17.182;-96.766;2023-03-23T11:51:55;5.10;;;2.87;;
44272;SDS011;29964;17.182;-96.766;2023-03-23T11:54:29;1.90;;;1.57;;
44272;SDS011;29964;17.182;-96.766;2023-03-23T11:56:56;5.57;;;3.03;;
44272;SDS011;29964;17.182;-96.766;2023-03-23T11:59:32;6.23;;;2.90;;
44272;SDS011;29964;17.182;-96.766;2023-03-23T12:10:08;2.47;;;1.90;;
44272;SDS011;29964;17.182;-96.766;2023-03-23T12:15:17;4.17;;;3.10;;
44272;SDS011;29964;17.182;-96.766;2023-03-23T12:20:37;2.50;;;2.03;;
44272;SDS011;29964;17.182;-96.766;2023-03-23T12:23:25;2.57;;;1.77;;
44272;SDS011;29964;17.182;-96.766;2023-03-23T12:34:13;2.95;;;2.25;;
44272;SDS011;29964;17.182;-96.766;2023-03-23T12:36:52;4.30;;;2.57;;
44272;SDS011;29964;17.182;-96.766;2023-03-23T12:44:27;4.27;;;1.90;;
44272;SDS011;29964;17.182;-96.766;2023-03-23T12:49:29;3.77;;;2.40;;
44272;SDS011;29964;17.182;-96.766;2023-03-23T12:51:59;4.35;;;2.45;;
44272;SDS011;29964;17.182;-96.766;2023-03-23T12:57:11;4.17;;;2.87;;
44272;SDS011;29964;17.182;-96.766;2023-03-23T12:59:41;2.93;;;2.13;;
44272;SDS011;29964;17.182;-96.766;2023-03-23T13:02:20;4.07;;;2.53;;
44272;SDS011;29964;17.182;-96.766;2023-03-23T13:04:54;4.53;;;2.60;;
44272;SDS011;29964;17.182;-96.766;2023-03-23T13:07:26;3.30;;;2.70;;
44272;SDS011;29964;17.182;-96.766;2023-03-23T13:12:23;6.37;;;2.33;;
44272;SDS011;29964;17.182;-96.766;2023-03-23T13:22:52;6.83;;;3.30;;
44272;SDS011;29964;17.182;-96.766;2023-03-23T13:28:12;9.73;;;3.80;;
44272;SDS011;29964;17.182;-96.766;2023-03-23T13:30:40;12.17;;;4.13;;
44272;SDS011;29964;17.182;-96.766;2023-03-23T13:33:10;8.30;;;3.73;;
44272;SDS011;29964;17.182;-96.766;2023-03-23T13:35:38;7.10;;;4.03;;
44272;SDS011;29964;17.182;-96.766;2023-03-23T13:40:45;24.10;;;3.60;;
44272;SDS011;29964;17.182;-96.766;2023-03-23T13:43:24;3.00;;;2.27;;
44272;SDS011;29964;17.182;-96.766;2023-03-23T13:45:52;6.57;;;2.73;;
44272;SDS011;29964;17.182;-96.766;2023-03-23T13:48:22;2.73;;;2.10;;
44272;SDS011;29964;17.182;-96.766;2023-03-23T13:50:51;5.80;;;3.33;;
44272;SDS011;29964;17.182;-96.766;2023-03-23T13:53:26;4.00;;;3.27;;
44272;SDS011;29964;17.182;-96.766;2023-03-23T13:56:07;9.00;;;3.80;;
44272;SDS011;29964;17.182;-96.766;2023-03-23T13:58:43;6.95;;;3.10;;
44272;SDS011;29964;17.182;-96.766;2023-03-23T14:01:12;22.83;;;2.80;;
44272;SDS011;29964;17.182;-96.766;2023-03-23T14:03:42;42.80;;;3.17;;
44272;SDS011;29964;17.182;-96.766;2023-03-23T14:06:42;5.40;;;2.00;;
44272;SDS011;29964;17.182;-96.766;2023-03-23T14:14:20;5.70;;;2.87;;
44272;SDS011;29964;17.182;-96.766;2023-03-23T14:16:49;4.73;;;1.97;;
44272;SDS011;29964;17.182;-96.766;2023-03-23T14:19:26;6.03;;;2.47;;
44272;SDS011;29964;17.182;-96.766;2023-03-23T14:21:58;5.03;;;2.77;;
44272;SDS011;29964;17.182;-96.766;2023-03-23T14:26:53;6.07;;;3.23;;
44272;SDS011;29964;17.182;-96.766;2023-03-23T14:29:20;2.93;;;2.03;;
44272;SDS011;29964;17.182;-96.766;2023-03-23T14:31:49;7.20;;;3.33;;
44272;SDS011;29964;17.182;-96.766;2023-03-23T14:34:18;4.40;;;3.00;;
44272;SDS011;29964;17.182;-96.766;2023-03-23T14:36:45;6.90;;;3.13;;
44272;SDS011;29964;17.182;-96.766;2023-03-23T14:41:39;4.03;;;2.27;;
44272;SDS011;29964;17.182;-96.766;2023-03-23T14:44:07;3.47;;;2.20;;
44272;SDS011;29964;17.182;-96.766;2023-03-23T14:46:35;4.10;;;2.47;;
44272;SDS011;29964;17.182;-96.766;2023-03-23T14:49:02;5.07;;;3.10;;
44272;SDS011;29964;17.182;-96.766;2023-03-23T14:51:31;8.57;;;2.80;;
44272;SDS011;29964;17.182;-96.766;2023-03-23T14:53:58;4.13;;;2.43;;
44272;SDS011;29964;17.182;-96.766;2023-03-23T14:56:33;6.73;;;3.37;;
44272;SDS011;29964;17.182;-96.766;2023-03-23T14:59:03;9.30;;;3.00;;
44272;SDS011;29964;17.182;-96.766;2023-03-23T15:01:32;5.67;;;3.20;;
44272;SDS011;29964;17.182;-96.766;2023-03-23T15:04:03;3.63;;;2.40;;
44272;SDS011;29964;17.182;-96.766;2023-03-23T15:06:33;3.47;;;2.07;;
44272;SDS011;29964;17.182;-96.766;2023-03-23T15:09:05;4.13;;;2.33;;
44272;SDS011;29964;17.182;-96.766;2023-03-23T15:11:33;4.63;;;2.60;;
44272;SDS011;29964;17.182;-96.766;2023-03-23T15:14:08;5.27;;;3.13;;
44272;SDS011;29964;17.182;-96.766;2023-03-23T15:16:36;9.73;;;2.83;;
44272;SDS011;29964;17.182;-96.766;2023-03-23T15:19:11;4.33;;;2.57;;
44272;SDS011;29964;17.182;-96.766;2023-03-23T15:21:53;9.47;;;2.97;;
44272;SDS011;29964;17.182;-96.766;2023-03-23T15:24:24;6.27;;;2.93;;
44272;SDS011;29964;17.182;-96.766;2023-03-23T15:26:51;4.77;;;3.10;;
44272;SDS011;29964;17.182;-96.766;2023-03-23T15:29:19;4.33;;;2.87;;
44272;SDS011;29964;17.182;-96.766;2023-03-23T15:31:53;2.67;;;1.83;;
44272;SDS011;29964;17.182;-96.766;2023-03-23T15:34:31;3.97;;;2.60;;
44272;SDS011;29964;17.182;-96.766;2023-03-23T15:37:00;4.27;;;2.10;;
44272;SDS011;29964;17.182;-96.766;2023-03-23T15:39:27;3.60;;;2.37;;
44272;SDS011;29964;17.182;-96.766;2023-03-23T15:41:54;3.63;;;2.43;;
44272;SDS011;29964;17.182;-96.766;2023-03-23T15:44:33;3.33;;;2.67;;
44272;SDS011;29964;17.182;-96.766;2023-03-23T15:49:39;7.57;;;2.83;;
44272;SDS011;29964;17.182;-96.766;2023-03-23T15:52:08;5.70;;;2.63;;
44272;SDS011;29964;17.182;-96.766;2023-03-23T15:54:36;6.35;;;3.60;;
44272;SDS011;29964;17.182;-96.766;2023-03-23T15:57:03;4.32;;;2.67;;
44272;SDS011;29964;17.182;-96.766;2023-03-23T15:59:29;6.38;;;3.30;;
44272;SDS011;29964;17.182;-96.766;2023-03-23T16:01:56;4.05;;;2.72;;
44272;SDS011;29964;17.182;-96.766;2023-03-23T16:04:23;3.53;;;2.38;;
44272;SDS011;29964;17.182;-96.766;2023-03-23T16:06:51;4.80;;;2.85;;
44272;SDS011;29964;17.182;-96.766;2023-03-23T16:09:19;4.60;;;2.53;;
44272;SDS011;29964;17.182;-96.766;2023-03-23T16:11:46;5.10;;;3.22;;
44272;SDS011;29964;17.182;-96.766;2023-03-23T16:14:13;4.25;;;2.20;;
44272;SDS011;29964;17.182;-96.766;2023-03-23T16:16:47;4.93;;;2.72;;
44272;SDS011;29964;17.182;-96.766;2023-03-23T16:21:45;6.15;;;2.70;;
44272;SDS011;29964;17.182;-96.766;2023-03-23T16:24:12;3.35;;;2.60;;